sensor_id;sensor_type;location;lat;lon;timestamp;P1;durP1;ratioP1;P2;durP2;ratioP2
14013;SDS011;49110;52.584;13.408;2023-01-01T00:00:45;21.47;;;15.67;;
14013;SDS011;49110;52.584;13.408;2023-01-01T00:01:47;25.20;;;16.87;;
14013;SDS011;49110;52.584;13.408;2023-01-01T00:02:47;25.73;;;17.83;;
14013;SDS011;49110;52.584;13.408;2023-01-01T00:03:49;23.27;;;16.90;;
14013;SDS011;49110;52.584;13.408;2023-01-01T00:04:50;24.77;;;17.23;;
14013;SDS011;49110;52.584;13.408;2023-01-01T00:05:50;25.90;;;17.97;;
14013;SDS011;49110;52.584;13.408;2023-01-01T00:06:51;28.40;;;18.07;;
14013;SDS011;49110;52.584;13.408;2023-01-01T00:07:52;26.87;;;18.67;;
14013;SDS011;49110;52.584;13.408;2023-01-01T00:08:52;28.60;;;17.97;;
14013;SDS011;49110;52.584;13.408;2023-01-01T00:10:13;28.77;;;17.00;;
14013;SDS011;49110;52.584;13.408;2023-01-01T00:11:28;24.20;;;17.37;;
14013;SDS011;49110;52.584;13.408;2023-01-01T00:12:30;27.00;;;16.73;;
14013;SDS011;49110;52.584;13.408;2023-01-01T00:13:31;22.27;;;15.57;;
14013;SDS011;49110;52.584;13.408;2023-01-01T00:14:32;22.50;;;13.60;;
14013;SDS011;49110;52.584;13.408;2023-01-01T00:15:32;18.87;;;12.27;;
14013;SDS011;49110;52.584;13.408;2023-01-01T00:16:33;18.40;;;13.37;;
14013;SDS011;49110;52.584;13.408;2023-01-01T00:17:33;21.53;;;13.70;;
14013;SDS011;49110;52.584;13.408;2023-01-01T00:18:34;14.57;;;11.10;;
14013;SDS011;49110;52.584;13.408;2023-01-01T00:19:35;22.80;;;13.97;;
14013;SDS011;49110;52.584;13.408;2023-01-01T00:20:36;13.90;;;10.07;;
14013;SDS011;49110;52.584;13.408;2023-01-01T00:21:37;13.67;;;8.47;;
14013;SDS011;49110;52.584;13.408;2023-01-01T00:22:39;13.50;;;8.60;;
14013;SDS011;49110;52.584;13.408;2023-01-01T00:23:39;12.33;;;8.67;;
14013;SDS011;49110;52.584;13.408;2023-01-01T00:24:40;14.87;;;8.60;;
14013;SDS011;49110;52.584;13.408;2023-01-01T00:25:41;13.20;;;7.93;;
14013;SDS011;49110;52.584;13.408;2023-01-01T00:26:41;12.53;;;7.47;;
14013;SDS011;49110;52.584;13.408;2023-01-01T00:27:42;9.50;;;6.83;;
14013;SDS011;49110;52.584;13.408;2023-01-01T00:28:43;10.40;;;6.80;;
14013;SDS011;49110;52.584;13.408;2023-01-01T00:29:44;11.97;;;6.40;;
14013;SDS011;49110;52.584;13.408;2023-01-01T00:30:45;12.30;;;6.23;;
14013;SDS011;49110;52.584;13.408;2023-01-01T00:31:45;12.10;;;6.50;;
14013;SDS011;49110;52.584;13.408;2023-01-01T00:32:46;11.23;;;6.50;;
14013;SDS011;49110;52.584;13.408;2023-01-01T00:33:51;12.00;;;6.40;;
14013;SDS011;49110;52.584;13.408;2023-01-01T00:34:53;11.23;;;6.70;;
14013;SDS011;49110;52.584;13.408;2023-01-01T00:35:54;7.67;;;6.10;;
14013;SDS011;49110;52.584;13.408;2023-01-01T00:36:55;9.30;;;6.43;;
14013;SDS011;49110;52.584;13.408;2023-01-01T00:37:56;16.30;;;7.43;;
14013;SDS011;49110;52.584;13.408;2023-01-01T00:38:57;8.27;;;5.87;;
14013;SDS011;49110;52.584;13.408;2023-01-01T00:39:57;9.40;;;5.90;;
14013;SDS011;49110;52.584;13.408;2023-01-01T00:40:58;6.53;;;4.77;;
14013;SDS011;49110;52.584;13.408;2023-01-01T00:41:58;9.10;;;5.07;;
14013;SDS011;49110;52.584;13.408;2023-01-01T00:42:59;8.03;;;5.07;;
14013;SDS011;49110;52.584;13.408;2023-01-01T00:43:59;8.17;;;4.93;;
14013;SDS011;49110;52.584;13.408;2023-01-01T00:45:00;8.80;;;5.33;;
14013;SDS011;49110;52.584;13.408;2023-01-01T00:46:00;8.80;;;4.93;;
14013;SDS011;49110;52.584;13.408;2023-01-01T00:47:01;7.77;;;4.73;;
14013;SDS011;49110;52.584;13.408;2023-01-01T00:48:02;10.13;;;4.90;;
14013;SDS011;49110;52.584;13.408;2023-01-01T00:49:03;6.67;;;4.60;;
14013;SDS011;49110;52.584;13.408;2023-01-01T00:50:03;7.30;;;4.23;;
14013;SDS011;49110;52.584;13.408;2023-01-01T00:51:04;5.13;;;4.20;;
14013;SDS011;49110;52.584;13.408;2023-01-01T00:52:05;9.83;;;4.70;;
14013;SDS011;49110;52.584;13.408;2023-01-01T00:53:06;8.83;;;4.03;;
14013;SDS011;49110;52.584;13.408;2023-01-01T00:54:07;8.57;;;4.10;;
14013;SDS011;49110;52.584;13.408;2023-01-01T00:55:07;6.40;;;4.00;;
14013;SDS011;49110;52.584;13.408;2023-01-01T00:56:08;6.30;;;3.73;;
14013;SDS011;49110;52.584;13.408;2023-01-01T00:57:09;6.33;;;3.60;;
14013;SDS011;49110;52.584;13.408;2023-01-01T00:58:10;6.03;;;3.73;;
14013;SDS011;49110;52.584;13.408;2023-01-01T00:59:11;5.70;;;3.33;;
14013;SDS011;49110;52.584;13.408;2023-01-01T01:06:54;4.77;;;2.77;;
14013;SDS011;49110;52.584;13.408;2023-01-01T01:10:45;6.00;;;3.33;;
14013;SDS011;49110;52.584;13.408;2023-01-01T01:11:53;6.10;;;3.37;;
14013;SDS011;49110;52.584;13.408;2023-01-01T01:29:29;2.93;;;2.60;;
14013;SDS011;49110;52.584;13.408;2023-01-01T01:32:43;6.10;;;2.80;;
14013;SDS011;49110;52.584;13.408;2023-01-01T01:33:52;4.40;;;2.57;;
14013;SDS011;49110;52.584;13.408;2023-01-01T01:34:56;4.40;;;2.57;;
14013;SDS011;49110;52.584;13.408;2023-01-01T01:36:15;5.77;;;2.97;;
14013;SDS011;49110;52.584;13.408;2023-01-01T01:37:38;5.07;;;2.77;;
14013;SDS011;49110;52.584;13.408;2023-01-01T01:38:44;3.93;;;2.47;;
14013;SDS011;49110;52.584;13.408;2023-01-01T01:39:51;4.30;;;2.73;;
14013;SDS011;49110;52.584;13.408;2023-01-01T01:42:18;3.30;;;2.80;;
14013;SDS011;49110;52.584;13.408;2023-01-01T01:45:25;9.30;;;3.33;;
14013;SDS011;49110;52.584;13.408;2023-01-01T01:48:01;8.00;;;3.10;;
14013;SDS011;49110;52.584;13.408;2023-01-01T01:49:16;5.93;;;2.90;;
14013;SDS011;49110;52.584;13.408;2023-01-01T01:50:31;6.93;;;3.30;;
14013;SDS011;49110;52.584;13.408;2023-01-01T01:51:39;3.87;;;2.90;;
14013;SDS011;49110;52.584;13.408;2023-01-01T01:54:09;7.10;;;3.17;;
14013;SDS011;49110;52.584;13.408;2023-01-01T01:55:17;5.17;;;3.23;;
14013;SDS011;49110;52.584;13.408;2023-01-01T01:56:20;5.20;;;3.23;;
14013;SDS011;49110;52.584;13.408;2023-01-01T01:57:28;4.03;;;2.80;;
14013;SDS011;49110;52.584;13.408;2023-01-01T01:58:51;10.50;;;3.20;;
14013;SDS011;49110;52.584;13.408;2023-01-01T01:59:57;6.70;;;2.80;;
14013;SDS011;49110;52.584;13.408;2023-01-01T02:00:59;4.77;;;2.83;;
14013;SDS011;49110;52.584;13.408;2023-01-01T02:02:03;4.00;;;3.20;;
14013;SDS011;49110;52.584;13.408;2023-01-01T02:03:28;4.97;;;2.90;;
14013;SDS011;49110;52.584;13.408;2023-01-01T02:06:37;5.90;;;3.30;;
14013;SDS011;49110;52.584;13.408;2023-01-01T02:08:08;6.67;;;3.50;;
14013;SDS011;49110;52.584;13.408;2023-01-01T02:09:47;3.53;;;2.90;;
14013;SDS011;49110;52.584;13.408;2023-01-01T02:11:37;4.87;;;3.10;;
14013;SDS011;49110;52.584;13.408;2023-01-01T02:12:51;5.13;;;3.30;;
14013;SDS011;49110;52.584;13.408;2023-01-01T02:18:09;6.70;;;3.30;;
14013;SDS011;49110;52.584;13.408;2023-01-01T02:34:22;6.30;;;3.20;;
14013;SDS011;49110;52.584;13.408;2023-01-01T02:35:30;5.33;;;3.50;;
14013;SDS011;49110;52.584;13.408;2023-01-01T02:39:08;4.53;;;3.10;;
14013;SDS011;49110;52.584;13.408;2023-01-01T02:54:54;4.80;;;3.10;;
14013;SDS011;49110;52.584;13.408;2023-01-01T02:56:18;2.77;;;2.27;;
14013;SDS011;49110;52.584;13.408;2023-01-01T03:01:33;6.40;;;3.03;;
14013;SDS011;49110;52.584;13.408;2023-01-01T03:05:55;5.57;;;2.87;;
14013;SDS011;49110;52.584;13.408;2023-01-01T03:12:02;6.27;;;3.10;;
14013;SDS011;49110;52.584;13.408;2023-01-01T03:13:16;6.67;;;3.23;;
14013;SDS011;49110;52.584;13.408;2023-01-01T03:16:17;5.53;;;3.07;;
14013;SDS011;49110;52.584;13.408;2023-01-01T03:19:23;4.80;;;3.00;;
14013;SDS011;49110;52.584;13.408;2023-01-01T03:23:41;5.37;;;2.80;;
14013;SDS011;49110;52.584;13.408;2023-01-01T03:24:47;3.73;;;3.20;;
14013;SDS011;49110;52.584;13.408;2023-01-01T03:27:43;4.27;;;2.70;;
14013;SDS011;49110;52.584;13.408;2023-01-01T03:28:55;6.63;;;2.90;;
14013;SDS011;49110;52.584;13.408;2023-01-01T03:38:04;8.47;;;3.00;;
14013;SDS011;49110;52.584;13.408;2023-01-01T03:43:53;5.77;;;3.07;;
14013;SDS011;49110;52.584;13.408;2023-01-01T03:49:32;5.63;;;2.80;;
14013;SDS011;49110;52.584;13.408;2023-01-01T06:31:59;3.97;;;1.93;;
14013;SDS011;49110;52.584;13.408;2023-01-01T08:37:55;6.20;;;3.13;;
14013;SDS011;49110;52.584;13.408;2023-01-01T08:59:41;3.20;;;2.90;;
14013;SDS011;49110;52.584;13.408;2023-01-01T09:01:14;3.83;;;2.90;;
14013;SDS011;49110;52.584;13.408;2023-01-01T09:05:01;5.77;;;3.60;;
14013;SDS011;49110;52.584;13.408;2023-01-01T09:14:25;4.80;;;2.90;;
14013;SDS011;49110;52.584;13.408;2023-01-01T09:17:15;3.63;;;2.90;;
14013;SDS011;49110;52.584;13.408;2023-01-01T09:22:29;3.97;;;2.70;;
14013;SDS011;49110;52.584;13.408;2023-01-01T09:23:46;3.80;;;2.90;;
14013;SDS011;49110;52.584;13.408;2023-01-01T09:37:42;5.17;;;3.00;;
14013;SDS011;49110;52.584;13.408;2023-01-01T09:38:47;3.70;;;3.13;;
14013;SDS011;49110;52.584;13.408;2023-01-01T09:39:48;4.53;;;2.73;;
14013;SDS011;49110;52.584;13.408;2023-01-01T09:40:55;5.70;;;3.67;;
14013;SDS011;49110;52.584;13.408;2023-01-01T09:42:30;4.80;;;2.90;;
14013;SDS011;49110;52.584;13.408;2023-01-01T09:44:30;4.53;;;2.97;;
14013;SDS011;49110;52.584;13.408;2023-01-01T09:45:20;3.63;;;2.80;;
14013;SDS011;49110;52.584;13.408;2023-01-01T09:46:27;8.27;;;3.60;;
14013;SDS011;49110;52.584;13.408;2023-01-01T09:47:30;3.53;;;2.80;;
14013;SDS011;49110;52.584;13.408;2023-01-01T09:48:39;6.37;;;3.13;;
14013;SDS011;49110;52.584;13.408;2023-01-01T09:49:43;4.40;;;2.83;;
14013;SDS011;49110;52.584;13.408;2023-01-01T09:50:47;5.97;;;3.00;;
14013;SDS011;49110;52.584;13.408;2023-01-01T09:51:50;5.07;;;2.90;;
14013;SDS011;49110;52.584;13.408;2023-01-01T09:52:55;5.10;;;3.40;;
14013;SDS011;49110;52.584;13.408;2023-01-01T09:53:59;3.20;;;2.77;;
14013;SDS011;49110;52.584;13.408;2023-01-01T09:55:17;7.63;;;3.43;;
14013;SDS011;49110;52.584;13.408;2023-01-01T09:56:23;3.87;;;2.80;;
14013;SDS011;49110;52.584;13.408;2023-01-01T09:57:28;3.90;;;2.63;;
14013;SDS011;49110;52.584;13.408;2023-01-01T09:58:34;3.93;;;2.87;;
14013;SDS011;49110;52.584;13.408;2023-01-01T09:59:36;5.70;;;3.20;;
14013;SDS011;49110;52.584;13.408;2023-01-01T10:00:37;6.53;;;3.03;;
14013;SDS011;49110;52.584;13.408;2023-01-01T10:03:09;5.90;;;2.80;;
14013;SDS011;49110;52.584;13.408;2023-01-01T10:06:21;5.07;;;2.67;;
14013;SDS011;49110;52.584;13.408;2023-01-01T10:07:41;5.03;;;3.00;;
14013;SDS011;49110;52.584;13.408;2023-01-01T10:08:51;4.57;;;2.90;;
14013;SDS011;49110;52.584;13.408;2023-01-01T10:12:48;4.03;;;2.83;;
14013;SDS011;49110;52.584;13.408;2023-01-01T10:13:57;4.57;;;2.57;;
14013;SDS011;49110;52.584;13.408;2023-01-01T10:15:19;3.90;;;2.60;;
14013;SDS011;49110;52.584;13.408;2023-01-01T10:16:27;5.73;;;3.07;;
14013;SDS011;49110;52.584;13.408;2023-01-01T10:17:37;3.57;;;2.97;;
14013;SDS011;49110;52.584;13.408;2023-01-01T10:18:44;5.37;;;2.60;;
14013;SDS011;49110;52.584;13.408;2023-01-01T10:19:48;5.27;;;3.10;;
14013;SDS011;49110;52.584;13.408;2023-01-01T10:22:08;4.20;;;2.57;;
14013;SDS011;49110;52.584;13.408;2023-01-01T10:23:16;5.93;;;3.20;;
14013;SDS011;49110;52.584;13.408;2023-01-01T10:25:28;7.57;;;3.60;;
14013;SDS011;49110;52.584;13.408;2023-01-01T10:26:31;5.20;;;2.93;;
14013;SDS011;49110;52.584;13.408;2023-01-01T10:27:38;4.90;;;2.73;;
14013;SDS011;49110;52.584;13.408;2023-01-01T10:30:27;3.40;;;2.30;;
14013;SDS011;49110;52.584;13.408;2023-01-01T10:31:32;7.27;;;2.80;;
14013;SDS011;49110;52.584;13.408;2023-01-01T10:32:46;5.30;;;2.73;;
14013;SDS011;49110;52.584;13.408;2023-01-01T10:33:48;2.70;;;2.10;;
14013;SDS011;49110;52.584;13.408;2023-01-01T10:34:48;2.63;;;2.20;;
14013;SDS011;49110;52.584;13.408;2023-01-01T10:35:50;5.43;;;2.40;;
14013;SDS011;49110;52.584;13.408;2023-01-01T10:36:58;4.63;;;2.63;;
14013;SDS011;49110;52.584;13.408;2023-01-01T10:38:00;3.77;;;2.63;;
14013;SDS011;49110;52.584;13.408;2023-01-01T10:39:03;7.50;;;2.60;;
14013;SDS011;49110;52.584;13.408;2023-01-01T10:40:05;2.50;;;2.30;;
14013;SDS011;49110;52.584;13.408;2023-01-01T10:41:15;3.67;;;2.40;;
14013;SDS011;49110;52.584;13.408;2023-01-01T10:42:16;4.03;;;2.63;;
14013;SDS011;49110;52.584;13.408;2023-01-01T10:43:16;4.23;;;2.70;;
14013;SDS011;49110;52.584;13.408;2023-01-01T10:44:20;6.27;;;3.40;;
14013;SDS011;49110;52.584;13.408;2023-01-01T10:45:30;4.50;;;3.20;;
14013;SDS011;49110;52.584;13.408;2023-01-01T10:46:39;5.00;;;2.57;;
14013;SDS011;49110;52.584;13.408;2023-01-01T10:49:18;4.80;;;2.63;;
14013;SDS011;49110;52.584;13.408;2023-01-01T10:50:19;3.93;;;2.70;;
14013;SDS011;49110;52.584;13.408;2023-01-01T10:51:19;4.63;;;2.70;;
14013;SDS011;49110;52.584;13.408;2023-01-01T10:52:27;4.53;;;2.40;;
14013;SDS011;49110;52.584;13.408;2023-01-01T10:53:31;2.50;;;2.30;;
14013;SDS011;49110;52.584;13.408;2023-01-01T10:54:38;6.77;;;2.53;;
14013;SDS011;49110;52.584;13.408;2023-01-01T10:55:39;3.90;;;2.57;;
14013;SDS011;49110;52.584;13.408;2023-01-01T10:56:40;3.07;;;2.50;;
14013;SDS011;49110;52.584;13.408;2023-01-01T10:57:40;3.43;;;2.77;;
14013;SDS011;49110;52.584;13.408;2023-01-01T10:58:47;4.50;;;2.33;;
14013;SDS011;49110;52.584;13.408;2023-01-01T10:59:49;3.17;;;2.67;;
14013;SDS011;49110;52.584;13.408;2023-01-01T11:00:56;3.83;;;2.80;;
14013;SDS011;49110;52.584;13.408;2023-01-01T11:02:06;4.53;;;2.13;;
14013;SDS011;49110;52.584;13.408;2023-01-01T11:03:18;6.10;;;2.50;;
14013;SDS011;49110;52.584;13.408;2023-01-01T11:04:20;5.40;;;2.90;;
14013;SDS011;49110;52.584;13.408;2023-01-01T11:05:21;3.83;;;2.00;;
14013;SDS011;49110;52.584;13.408;2023-01-01T11:06:31;2.90;;;2.23;;
14013;SDS011;49110;52.584;13.408;2023-01-01T11:07:36;2.37;;;2.17;;
14013;SDS011;49110;52.584;13.408;2023-01-01T11:08:40;3.80;;;2.17;;
14013;SDS011;49110;52.584;13.408;2023-01-01T11:09:50;4.47;;;1.97;;
14013;SDS011;49110;52.584;13.408;2023-01-01T11:10:53;2.30;;;1.83;;
14013;SDS011;49110;52.584;13.408;2023-01-01T11:12:03;5.60;;;2.43;;
14013;SDS011;49110;52.584;13.408;2023-01-01T11:13:13;4.67;;;2.23;;
14013;SDS011;49110;52.584;13.408;2023-01-01T11:14:20;2.63;;;2.10;;
14013;SDS011;49110;52.584;13.408;2023-01-01T11:15:36;3.33;;;2.00;;
14013;SDS011;49110;52.584;13.408;2023-01-01T11:16:41;5.20;;;2.47;;
14013;SDS011;49110;52.584;13.408;2023-01-01T11:17:44;3.73;;;2.53;;
14013;SDS011;49110;52.584;13.408;2023-01-01T11:18:45;2.90;;;2.27;;
14013;SDS011;49110;52.584;13.408;2023-01-01T11:19:47;3.33;;;2.47;;
14013;SDS011;49110;52.584;13.408;2023-01-01T11:20:55;4.37;;;2.20;;
14013;SDS011;49110;52.584;13.408;2023-01-01T11:21:57;4.50;;;2.30;;
14013;SDS011;49110;52.584;13.408;2023-01-01T11:22:58;3.97;;;2.10;;
14013;SDS011;49110;52.584;13.408;2023-01-01T11:24:36;3.17;;;2.17;;
14013;SDS011;49110;52.584;13.408;2023-01-01T11:25:37;3.60;;;2.20;;
14013;SDS011;49110;52.584;13.408;2023-01-01T11:26:38;4.07;;;2.10;;
14013;SDS011;49110;52.584;13.408;2023-01-01T11:27:38;3.00;;;2.00;;
14013;SDS011;49110;52.584;13.408;2023-01-01T11:28:39;2.53;;;2.30;;
14013;SDS011;49110;52.584;13.408;2023-01-01T11:29:40;3.93;;;2.40;;
14013;SDS011;49110;52.584;13.408;2023-01-01T11:30:41;2.47;;;2.27;;
14013;SDS011;49110;52.584;13.408;2023-01-01T11:31:57;2.83;;;1.90;;
14013;SDS011;49110;52.584;13.408;2023-01-01T11:33:00;4.60;;;2.40;;
14013;SDS011;49110;52.584;13.408;2023-01-01T11:34:03;2.40;;;2.10;;
14013;SDS011;49110;52.584;13.408;2023-01-01T11:35:25;2.80;;;2.20;;
14013;SDS011;49110;52.584;13.408;2023-01-01T11:36:28;3.00;;;2.10;;
14013;SDS011;49110;52.584;13.408;2023-01-01T11:37:34;3.60;;;2.13;;
14013;SDS011;49110;52.584;13.408;2023-01-01T11:38:37;2.47;;;2.23;;
14013;SDS011;49110;52.584;13.408;2023-01-01T11:39:40;7.90;;;2.50;;
14013;SDS011;49110;52.584;13.408;2023-01-01T11:40:45;3.30;;;2.20;;
14013;SDS011;49110;52.584;13.408;2023-01-01T11:41:48;2.60;;;2.03;;
14013;SDS011;49110;52.584;13.408;2023-01-01T11:42:55;2.60;;;2.40;;
14013;SDS011;49110;52.584;13.408;2023-01-01T11:43:58;5.70;;;2.20;;
14013;SDS011;49110;52.584;13.408;2023-01-01T11:45:02;2.67;;;2.13;;
14013;SDS011;49110;52.584;13.408;2023-01-01T11:46:13;4.10;;;2.53;;
14013;SDS011;49110;52.584;13.408;2023-01-01T11:47:22;4.70;;;2.23;;
14013;SDS011;49110;52.584;13.408;2023-01-01T11:48:34;2.77;;;2.20;;
14013;SDS011;49110;52.584;13.408;2023-01-01T11:49:39;3.77;;;2.27;;
14013;SDS011;49110;52.584;13.408;2023-01-01T11:50:40;2.30;;;2.10;;
14013;SDS011;49110;52.584;13.408;2023-01-01T11:51:57;7.97;;;2.60;;
14013;SDS011;49110;52.584;13.408;2023-01-01T11:53:16;2.43;;;1.93;;
14013;SDS011;49110;52.584;13.408;2023-01-01T11:55:32;3.77;;;1.97;;
14013;SDS011;49110;52.584;13.408;2023-01-01T11:56:41;2.30;;;2.03;;
14013;SDS011;49110;52.584;13.408;2023-01-01T11:57:44;6.00;;;2.10;;
14013;SDS011;49110;52.584;13.408;2023-01-01T11:59:58;4.23;;;2.00;;
14013;SDS011;49110;52.584;13.408;2023-01-01T12:01:03;2.63;;;1.93;;
14013;SDS011;49110;52.584;13.408;2023-01-01T12:02:10;4.50;;;2.10;;
14013;SDS011;49110;52.584;13.408;2023-01-01T12:04:30;6.03;;;2.17;;
14013;SDS011;49110;52.584;13.408;2023-01-01T12:06:40;4.20;;;1.93;;
14013;SDS011;49110;52.584;13.408;2023-01-01T12:07:24;5.80;;;2.00;;
14013;SDS011;49110;52.584;13.408;2023-01-01T12:08:34;3.07;;;2.17;;
14013;SDS011;49110;52.584;13.408;2023-01-01T12:10:53;2.93;;;2.40;;
14013;SDS011;49110;52.584;13.408;2023-01-01T12:12:22;3.27;;;2.27;;
14013;SDS011;49110;52.584;13.408;2023-01-01T12:13:28;2.97;;;1.90;;
14013;SDS011;49110;52.584;13.408;2023-01-01T12:14:51;3.67;;;2.10;;
14013;SDS011;49110;52.584;13.408;2023-01-01T12:17:36;5.00;;;2.10;;
14013;SDS011;49110;52.584;13.408;2023-01-01T12:19:01;2.73;;;2.17;;
14013;SDS011;49110;52.584;13.408;2023-01-01T12:21:26;2.50;;;1.90;;
14013;SDS011;49110;52.584;13.408;2023-01-01T12:22:27;3.90;;;1.97;;
14013;SDS011;49110;52.584;13.408;2023-01-01T12:23:29;3.17;;;2.30;;
14013;SDS011;49110;52.584;13.408;2023-01-01T12:24:32;2.87;;;2.03;;
14013;SDS011;49110;52.584;13.408;2023-01-01T12:25:40;4.10;;;2.10;;
14013;SDS011;49110;52.584;13.408;2023-01-01T12:26:51;4.03;;;2.03;;
14013;SDS011;49110;52.584;13.408;2023-01-01T12:30:18;2.10;;;1.70;;
14013;SDS011;49110;52.584;13.408;2023-01-01T12:32:08;1.93;;;1.83;;
14013;SDS011;49110;52.584;13.408;2023-01-01T12:36:54;3.13;;;1.83;;
14013;SDS011;49110;52.584;13.408;2023-01-01T12:39:36;5.37;;;2.17;;
14013;SDS011;49110;52.584;13.408;2023-01-01T12:40:51;3.50;;;1.93;;
14013;SDS011;49110;52.584;13.408;2023-01-01T12:51:19;5.13;;;1.90;;
14013;SDS011;49110;52.584;13.408;2023-01-01T12:58:15;4.70;;;1.90;;
14013;SDS011;49110;52.584;13.408;2023-01-01T12:59:27;3.53;;;1.83;;
14013;SDS011;49110;52.584;13.408;2023-01-01T13:00:31;4.80;;;2.10;;
14013;SDS011;49110;52.584;13.408;2023-01-01T13:01:33;6.57;;;2.40;;
14013;SDS011;49110;52.584;13.408;2023-01-01T13:02:35;3.30;;;2.30;;
14013;SDS011;49110;52.584;13.408;2023-01-01T13:03:47;1.77;;;1.67;;
14013;SDS011;49110;52.584;13.408;2023-01-01T13:04:56;3.40;;;2.20;;
14013;SDS011;49110;52.584;13.408;2023-01-01T13:06:01;6.30;;;3.07;;
14013;SDS011;49110;52.584;13.408;2023-01-01T13:07:05;2.90;;;2.10;;
14013;SDS011;49110;52.584;13.408;2023-01-01T13:08:13;3.80;;;2.07;;
14013;SDS011;49110;52.584;13.408;2023-01-01T13:09:18;4.23;;;2.33;;
14013;SDS011;49110;52.584;13.408;2023-01-01T13:11:22;3.70;;;2.10;;
14013;SDS011;49110;52.584;13.408;2023-01-01T13:12:25;5.27;;;2.20;;
14013;SDS011;49110;52.584;13.408;2023-01-01T13:13:26;3.07;;;2.13;;
14013;SDS011;49110;52.584;13.408;2023-01-01T13:14:27;3.93;;;2.20;;
14013;SDS011;49110;52.584;13.408;2023-01-01T13:16:37;3.00;;;2.07;;
14013;SDS011;49110;52.584;13.408;2023-01-01T13:17:40;2.53;;;1.97;;
14013;SDS011;49110;52.584;13.408;2023-01-01T13:18:51;4.40;;;2.60;;
14013;SDS011;49110;52.584;13.408;2023-01-01T13:20:14;3.40;;;2.30;;
14013;SDS011;49110;52.584;13.408;2023-01-01T13:21:21;4.07;;;2.30;;
14013;SDS011;49110;52.584;13.408;2023-01-01T13:24:33;3.17;;;2.00;;
14013;SDS011;49110;52.584;13.408;2023-01-01T13:25:34;4.87;;;2.50;;
14013;SDS011;49110;52.584;13.408;2023-01-01T13:26:35;5.53;;;2.20;;
14013;SDS011;49110;52.584;13.408;2023-01-01T13:29:58;3.07;;;2.03;;
14013;SDS011;49110;52.584;13.408;2023-01-01T13:30:59;5.97;;;2.30;;
14013;SDS011;49110;52.584;13.408;2023-01-01T13:32:00;3.40;;;2.03;;
14013;SDS011;49110;52.584;13.408;2023-01-01T13:34:57;4.77;;;2.23;;
14013;SDS011;49110;52.584;13.408;2023-01-01T13:39:54;3.97;;;2.10;;
14013;SDS011;49110;52.584;13.408;2023-01-01T13:40:59;3.43;;;2.10;;
14013;SDS011;49110;52.584;13.408;2023-01-01T13:42:00;4.13;;;2.40;;
14013;SDS011;49110;52.584;13.408;2023-01-01T13:46:40;3.10;;;2.10;;
14013;SDS011;49110;52.584;13.408;2023-01-01T13:52:12;3.60;;;2.00;;
14013;SDS011;49110;52.584;13.408;2023-01-01T13:53:40;4.17;;;2.10;;
14013;SDS011;49110;52.584;13.408;2023-01-01T13:57:49;3.30;;;2.50;;
14013;SDS011;49110;52.584;13.408;2023-01-01T14:00:33;2.80;;;1.97;;
14013;SDS011;49110;52.584;13.408;2023-01-01T14:02:59;3.30;;;2.20;;
14013;SDS011;49110;52.584;13.408;2023-01-01T14:04:06;3.67;;;2.23;;
14013;SDS011;49110;52.584;13.408;2023-01-01T14:06:41;3.30;;;1.77;;
14013;SDS011;49110;52.584;13.408;2023-01-01T14:07:50;3.00;;;2.13;;
14013;SDS011;49110;52.584;13.408;2023-01-01T14:09:08;5.37;;;2.17;;
14013;SDS011;49110;52.584;13.408;2023-01-01T14:10:19;3.20;;;2.10;;
14013;SDS011;49110;52.584;13.408;2023-01-01T14:11:34;3.30;;;2.40;;
14013;SDS011;49110;52.584;13.408;2023-01-01T14:12:36;5.07;;;2.10;;
14013;SDS011;49110;52.584;13.408;2023-01-01T14:13:38;4.10;;;2.33;;
14013;SDS011;49110;52.584;13.408;2023-01-01T14:14:39;2.33;;;2.00;;
14013;SDS011;49110;52.584;13.408;2023-01-01T14:17:04;4.53;;;2.20;;
14013;SDS011;49110;52.584;13.408;2023-01-01T14:18:09;3.30;;;2.10;;
14013;SDS011;49110;52.584;13.408;2023-01-01T14:19:12;3.50;;;2.23;;
14013;SDS011;49110;52.584;13.408;2023-01-01T14:20:16;4.00;;;2.13;;
14013;SDS011;49110;52.584;13.408;2023-01-01T14:21:19;3.57;;;2.13;;
14013;SDS011;49110;52.584;13.408;2023-01-01T14:22:21;5.97;;;2.47;;
14013;SDS011;49110;52.584;13.408;2023-01-01T14:23:32;3.80;;;2.07;;
14013;SDS011;49110;52.584;13.408;2023-01-01T14:24:42;3.87;;;2.10;;
14013;SDS011;49110;52.584;13.408;2023-01-01T14:25:44;3.87;;;2.20;;
14013;SDS011;49110;52.584;13.408;2023-01-01T14:26:46;6.17;;;2.40;;
14013;SDS011;49110;52.584;13.408;2023-01-01T14:27:47;5.23;;;2.60;;
14013;SDS011;49110;52.584;13.408;2023-01-01T14:28:47;2.70;;;2.10;;
14013;SDS011;49110;52.584;13.408;2023-01-01T14:29:51;2.83;;;1.93;;
14013;SDS011;49110;52.584;13.408;2023-01-01T14:30:53;3.33;;;2.23;;
14013;SDS011;49110;52.584;13.408;2023-01-01T14:31:58;2.77;;;2.03;;
14013;SDS011;49110;52.584;13.408;2023-01-01T14:33:01;5.93;;;2.00;;
14013;SDS011;49110;52.584;13.408;2023-01-01T14:34:15;5.77;;;2.43;;
14013;SDS011;49110;52.584;13.408;2023-01-01T14:35:24;4.30;;;2.50;;
14013;SDS011;49110;52.584;13.408;2023-01-01T14:36:26;4.23;;;2.10;;
14013;SDS011;49110;52.584;13.408;2023-01-01T14:37:29;3.83;;;2.50;;
14013;SDS011;49110;52.584;13.408;2023-01-01T14:38:33;4.50;;;2.30;;
14013;SDS011;49110;52.584;13.408;2023-01-01T14:39:35;3.93;;;2.90;;
14013;SDS011;49110;52.584;13.408;2023-01-01T14:40:36;4.50;;;2.50;;
14013;SDS011;49110;52.584;13.408;2023-01-01T14:41:38;6.50;;;2.40;;
14013;SDS011;49110;52.584;13.408;2023-01-01T14:42:40;4.03;;;2.40;;
14013;SDS011;49110;52.584;13.408;2023-01-01T14:43:42;3.10;;;2.17;;
14013;SDS011;49110;52.584;13.408;2023-01-01T14:44:45;3.67;;;2.50;;
14013;SDS011;49110;52.584;13.408;2023-01-01T14:45:49;3.00;;;2.00;;
14013;SDS011;49110;52.584;13.408;2023-01-01T14:46:52;6.23;;;2.23;;
14013;SDS011;49110;52.584;13.408;2023-01-01T14:47:53;3.40;;;2.37;;
14013;SDS011;49110;52.584;13.408;2023-01-01T14:48:55;4.30;;;2.07;;
14013;SDS011;49110;52.584;13.408;2023-01-01T14:51:10;3.63;;;2.03;;
14013;SDS011;49110;52.584;13.408;2023-01-01T14:57:45;4.27;;;1.90;;
14013;SDS011;49110;52.584;13.408;2023-01-01T14:58:49;2.77;;;1.83;;
14013;SDS011;49110;52.584;13.408;2023-01-01T14:59:50;2.87;;;2.23;;
14013;SDS011;49110;52.584;13.408;2023-01-01T15:01:12;4.10;;;2.17;;
14013;SDS011;49110;52.584;13.408;2023-01-01T15:02:21;3.10;;;2.20;;
14013;SDS011;49110;52.584;13.408;2023-01-01T15:03:29;6.40;;;2.73;;
14013;SDS011;49110;52.584;13.408;2023-01-01T15:04:29;3.03;;;2.20;;
14013;SDS011;49110;52.584;13.408;2023-01-01T15:05:31;5.27;;;2.67;;
14013;SDS011;49110;52.584;13.408;2023-01-01T15:06:38;3.03;;;2.03;;
14013;SDS011;49110;52.584;13.408;2023-01-01T15:07:40;5.13;;;2.43;;
14013;SDS011;49110;52.584;13.408;2023-01-01T15:08:40;4.40;;;2.40;;
14013;SDS011;49110;52.584;13.408;2023-01-01T15:09:41;4.63;;;2.80;;
14013;SDS011;49110;52.584;13.408;2023-01-01T15:10:41;4.73;;;2.47;;
14013;SDS011;49110;52.584;13.408;2023-01-01T15:11:42;4.17;;;2.40;;
14013;SDS011;49110;52.584;13.408;2023-01-01T15:12:42;5.70;;;2.33;;
14013;SDS011;49110;52.584;13.408;2023-01-01T15:13:53;4.30;;;2.53;;
14013;SDS011;49110;52.584;13.408;2023-01-01T15:14:58;5.07;;;2.63;;
14013;SDS011;49110;52.584;13.408;2023-01-01T15:16:16;5.33;;;2.60;;
14013;SDS011;49110;52.584;13.408;2023-01-01T15:17:22;5.20;;;2.60;;
14013;SDS011;49110;52.584;13.408;2023-01-01T15:19:41;3.73;;;2.53;;
14013;SDS011;49110;52.584;13.408;2023-01-01T15:20:43;3.23;;;2.07;;
14013;SDS011;49110;52.584;13.408;2023-01-01T15:21:52;3.27;;;2.10;;